Holstein, IA (51025)

9:55 PM CST on March 04, 2015 (GMT -0600)
morningside | Change Station
CLOSE
Current Station
Personal Weather Station
Location: Washta, IA
Elevation: 1171 ft
Nearby Weather Stations

Elev 1171 ft 42.57 °N, 95.72 °W | Updated 12 minutes ago

Clear
Clear
0.3 °F
Feels Like 0 °F
N
2.7
Wind Variable Wind from ESE

Today
High -- | Low -- °F
--% Chance of Precip.
Yesterday
High -- | Low -- °F
Precip. -- in
6:53 AM 6:15 PM
Full, 100% visible
Pressure 30.45 in
Visibility 10.0 miles
Clouds Clear
Windchill 0 °F
Dew Point -6 °F
Humidity 75%
Rainfall in
Snow Depth Not available.
UV 0 out of 12
Pollen .50 out of 12
Air Quality Not available.
Flu Activity Not available.
METAR KCKP 050335Z AUTO 33004KT 10SM CLR M16/M21 A3045 RMK AO2 T11651215

More Conditions Fewer Conditions

Pressure 30.45 in
Visibility 10.0 miles
Clouds Clear
Windchill 0 °F
Dew Point -6 °F
Humidity 75%
Rainfall in
Snow Depth Not available.
UV 0 out of 12
Pollen .50 out of 12
Air Quality Not available.
Flu Activity Not available.
METAR KCKP 050335Z AUTO 33004KT 10SM CLR M16/M21 A3045 RMK AO2 T11651215

More Conditions Fewer Conditions

10-Day Weather Forecast

Almanac

Astronomy

Mar. 04, 2015 Rise Set
Actual Time
Civil Twilight
Nautical Twilight
Astronomical Twilight
Moon
Length of Visible Light
Length of Day
Tomorrow will be .
, % of the Moon is Illuminated

Today's Extremes

State Highs State Lows

Community

WunderPhotos

Upload Photos

1,802,655 photos uploaded!

WunderBlogs® & News

Nearby

Air Quality

  Air Quality AQ Index Pollutant
Not available.

Snow Depth

Station Depth Elevation

Earthquake Activity

City Distance Mag. Time & Date
Minimum magnitude displayed is 2.5.

Coastal Water Temperatures

Place Temperature

Nearby Weather Stations